createdAt,value
2022-07-29T00:02:16.027Z,1.50
2022-07-29T00:04:42.716Z,1.50
2022-07-29T00:07:09.446Z,1.40
2022-07-29T00:09:50.355Z,1.40
2022-07-29T00:12:25.282Z,1.73
2022-07-29T00:14:53.488Z,1.63
2022-07-29T00:17:20.061Z,1.90
2022-07-29T00:19:46.622Z,1.53
2022-07-29T00:22:13.170Z,1.43
2022-07-29T00:24:39.711Z,1.73
2022-07-29T00:27:07.143Z,1.90
2022-07-29T00:29:34.854Z,1.57
2022-07-29T00:32:02.647Z,1.77
2022-07-29T00:34:47.655Z,1.50
2022-07-29T00:37:14.165Z,1.37
2022-07-29T00:39:40.733Z,1.57
2022-07-29T00:42:07.440Z,1.60
2022-07-29T00:44:38.977Z,1.63
2022-07-29T00:47:05.860Z,1.30
2022-07-29T00:49:33.289Z,1.70
2022-07-29T00:52:03.185Z,1.50
2022-07-29T00:54:30.144Z,1.50
2022-07-29T00:56:59.334Z,1.50
2022-07-29T00:59:34.476Z,1.80
2022-07-29T01:02:03.379Z,1.57
2022-07-29T01:04:31.886Z,1.57
2022-07-29T01:06:59.590Z,1.73
2022-07-29T01:09:42.775Z,1.93
2022-07-29T01:12:17.597Z,1.87
2022-07-29T01:14:45.558Z,1.90
2022-07-29T01:17:18.784Z,1.60
2022-07-29T01:20:00.520Z,1.83
2022-07-29T01:22:43.508Z,1.57
2022-07-29T01:25:25.930Z,1.80
2022-07-29T01:28:00.862Z,1.80
2022-07-29T01:30:33.400Z,1.70
2022-07-29T01:33:04.087Z,1.60
2022-07-29T01:35:39.219Z,1.80
2022-07-29T01:38:20.573Z,1.70
2022-07-29T01:41:17.321Z,1.80
2022-07-29T01:43:59.157Z,1.70
2022-07-29T01:46:31.641Z,1.60
2022-07-29T01:49:07.004Z,1.50
2022-07-29T01:51:53.816Z,1.70
2022-07-29T01:54:38.271Z,1.70
2022-07-29T01:57:07.857Z,1.67
2022-07-29T01:59:37.177Z,1.80
2022-07-29T02:02:04.064Z,1.50
2022-07-29T02:04:33.141Z,1.90
2022-07-29T02:07:03.197Z,1.90
2022-07-29T02:09:31.147Z,1.80
2022-07-29T02:12:00.292Z,1.80
2022-07-29T02:14:32.181Z,1.80
2022-07-29T02:17:01.441Z,1.57
2022-07-29T02:19:30.011Z,1.87
2022-07-29T02:21:58.662Z,2.30
2022-07-29T02:24:26.894Z,1.70
2022-07-29T02:26:55.926Z,1.70
2022-07-29T02:29:24.526Z,1.77
2022-07-29T02:31:52.521Z,2.03
2022-07-29T02:34:21.683Z,1.80
2022-07-29T02:36:50.397Z,1.80
2022-07-29T02:39:18.625Z,1.70
2022-07-29T02:41:48.709Z,1.90
2022-07-29T02:44:18.610Z,2.00
2022-07-29T02:47:20.023Z,1.90
2022-07-29T02:50:09.331Z,2.07
2022-07-29T02:52:37.685Z,1.90
2022-07-29T02:55:19.564Z,2.10
2022-07-29T02:57:55.861Z,2.27
2022-07-29T03:00:28.205Z,2.10
2022-07-29T03:02:57.275Z,1.70
2022-07-29T03:05:24.660Z,2.00
2022-07-29T03:07:58.136Z,1.90
2022-07-29T03:10:27.215Z,1.60
2022-07-29T03:12:55.734Z,2.30
2022-07-29T03:15:23.364Z,1.80
2022-07-29T03:17:53.778Z,2.00
2022-07-29T03:20:20.718Z,1.93
2022-07-29T03:22:50.051Z,2.20
2022-07-29T03:25:18.716Z,2.10
2022-07-29T03:27:46.321Z,2.10
2022-07-29T03:30:22.007Z,2.33
2022-07-29T03:32:52.089Z,2.33
2022-07-29T03:35:20.383Z,2.13
2022-07-29T03:37:47.253Z,1.80
2022-07-29T03:40:19.144Z,1.80
2022-07-29T03:42:47.727Z,2.43
2022-07-29T03:45:19.066Z,2.00
2022-07-29T03:47:52.876Z,2.20
2022-07-29T03:50:22.755Z,2.10
2022-07-29T03:52:49.955Z,2.17
2022-07-29T03:55:17.289Z,2.33
2022-07-29T03:57:45.987Z,2.40
2022-07-29T04:00:13.234Z,2.30
2022-07-29T04:02:40.909Z,2.30
2022-07-29T04:05:13.084Z,2.43
2022-07-29T04:07:39.711Z,2.10
2022-07-29T04:10:06.911Z,2.27
2022-07-29T04:12:33.497Z,2.20
2022-07-29T04:15:00.045Z,2.30
2022-07-29T04:17:26.572Z,2.40
2022-07-29T04:19:53.120Z,2.10
2022-07-29T04:22:19.632Z,2.13
2022-07-29T04:24:46.219Z,2.20
2022-07-29T04:27:12.909Z,2.43
2022-07-29T04:29:56.603Z,2.30
2022-07-29T04:32:24.773Z,2.00
2022-07-29T04:34:51.490Z,2.33
2022-07-29T04:37:18.181Z,2.10
2022-07-29T04:39:44.731Z,2.10
2022-07-29T04:42:11.316Z,2.40
2022-07-29T04:44:39.453Z,2.27
2022-07-29T04:47:09.639Z,2.40
2022-07-29T04:49:38.986Z,2.40
2022-07-29T04:52:06.398Z,2.33
2022-07-29T04:54:33.056Z,2.20
2022-07-29T04:56:59.580Z,2.17
2022-07-29T04:59:27.581Z,2.57
2022-07-29T05:01:54.315Z,2.30
2022-07-29T05:04:21.120Z,2.33
2022-07-29T05:06:48.493Z,2.70
2022-07-29T05:09:15.145Z,2.27
2022-07-29T05:11:41.688Z,2.20
2022-07-29T05:14:08.218Z,2.50
2022-07-29T05:16:34.793Z,1.90
2022-07-29T05:19:01.684Z,2.60
2022-07-29T05:21:28.166Z,2.30
2022-07-29T05:23:54.987Z,2.50
2022-07-29T05:26:21.562Z,2.17
2022-07-29T05:28:48.169Z,2.00
2022-07-29T05:31:15.581Z,1.90
2022-07-29T05:33:42.543Z,1.90
2022-07-29T05:36:09.622Z,2.33
2022-07-29T05:38:36.950Z,2.30
2022-07-29T05:41:04.461Z,2.00
2022-07-29T05:43:31.188Z,1.80
2022-07-29T05:45:58.088Z,1.90
2022-07-29T05:48:25.582Z,1.73
2022-07-29T05:50:52.316Z,2.13
2022-07-29T05:53:20.587Z,2.10
2022-07-29T05:55:49.744Z,2.43
2022-07-29T05:58:16.369Z,2.00
2022-07-29T06:00:42.963Z,2.13
2022-07-29T06:03:09.593Z,1.83
2022-07-29T06:05:36.288Z,1.90
2022-07-29T06:08:03.206Z,1.60
2022-07-29T06:10:29.877Z,2.00
2022-07-29T06:12:56.497Z,1.77
2022-07-29T06:15:23.159Z,1.93
2022-07-29T06:17:59.750Z,1.60
2022-07-29T06:20:31.983Z,2.00
2022-07-29T06:22:59.039Z,2.27
2022-07-29T06:25:25.706Z,1.83
2022-07-29T06:27:53.254Z,1.90
2022-07-29T06:30:19.832Z,1.90
2022-07-29T06:32:46.525Z,1.93
2022-07-29T06:35:37.862Z,1.80
2022-07-29T06:38:00.018Z,1.73
2022-07-29T06:40:46.183Z,1.90
2022-07-29T06:43:12.809Z,2.10
2022-07-29T06:45:42.045Z,2.10
2022-07-29T06:48:09.576Z,1.97
2022-07-29T06:50:36.435Z,2.10
2022-07-29T06:53:03.168Z,1.90
2022-07-29T06:55:29.747Z,1.87
2022-07-29T06:57:56.304Z,1.83
2022-07-29T07:00:23.018Z,1.67
2022-07-29T07:02:49.641Z,1.80
2022-07-29T07:05:16.269Z,1.73
2022-07-29T07:07:42.869Z,1.77
2022-07-29T07:10:09.686Z,1.67
2022-07-29T07:12:36.297Z,1.67
2022-07-29T07:15:03.288Z,1.80
2022-07-29T07:17:29.863Z,2.05
2022-07-29T07:19:56.420Z,1.65
2022-07-29T07:22:23.019Z,1.80
2022-07-29T07:24:49.581Z,2.00
2022-07-29T07:27:16.127Z,1.90
2022-07-29T07:29:44.472Z,1.80
2022-07-29T07:32:11.357Z,1.63
2022-07-29T07:34:38.958Z,2.28
2022-07-29T07:37:06.277Z,1.88
2022-07-29T07:39:32.937Z,2.05
2022-07-29T07:41:59.813Z,2.00
2022-07-29T07:44:26.473Z,1.80
2022-07-29T07:46:53.339Z,2.30
2022-07-29T07:49:21.591Z,1.90
2022-07-29T07:51:50.821Z,2.00
2022-07-29T07:54:20.517Z,1.85
2022-07-29T07:56:49.866Z,1.85
2022-07-29T07:59:19.598Z,2.20
2022-07-29T08:01:47.981Z,1.90
2022-07-29T08:04:27.295Z,2.10
2022-07-29T08:06:57.786Z,2.00
2022-07-29T08:09:29.875Z,2.13
2022-07-29T08:11:59.173Z,2.05
2022-07-29T08:14:26.070Z,2.20
2022-07-29T08:16:52.751Z,2.00
2022-07-29T08:19:19.592Z,2.20
2022-07-29T08:21:46.470Z,2.15
2022-07-29T08:24:31.634Z,2.33
2022-07-29T08:26:58.201Z,2.08
2022-07-29T08:29:24.962Z,2.10
2022-07-29T08:31:51.892Z,2.63
2022-07-29T08:34:18.821Z,2.92
2022-07-29T08:36:52.642Z,2.85
2022-07-29T08:39:19.358Z,2.90
2022-07-29T08:41:56.695Z,2.97
2022-07-29T08:44:29.602Z,2.58
2022-07-29T08:46:57.704Z,3.13
2022-07-29T08:49:24.435Z,2.90
2022-07-29T08:51:52.431Z,2.70
2022-07-29T08:54:20.759Z,2.97
2022-07-29T08:56:50.889Z,3.00
2022-07-29T08:59:21.857Z,2.30
2022-07-29T09:01:53.115Z,2.30
2022-07-29T09:04:21.984Z,2.58
2022-07-29T09:06:52.190Z,2.17
2022-07-29T09:09:18.909Z,2.28
2022-07-29T09:11:45.603Z,1.77
2022-07-29T09:14:14.377Z,2.15
2022-07-29T09:16:57.449Z,1.90
2022-07-29T09:19:27.077Z,1.70
2022-07-29T09:22:03.026Z,1.67
2022-07-29T09:24:45.359Z,1.80
2022-07-29T09:27:23.013Z,1.65
2022-07-29T09:30:11.556Z,1.80
2022-07-29T09:32:59.909Z,1.50
2022-07-29T09:35:27.248Z,1.77
2022-07-29T09:37:53.888Z,1.75
2022-07-29T09:40:26.015Z,1.63
2022-07-29T09:42:54.145Z,1.92
2022-07-29T09:45:48.336Z,1.50
2022-07-29T09:48:26.013Z,1.55
2022-07-29T09:50:53.479Z,1.60
2022-07-29T09:53:34.490Z,1.65
2022-07-29T09:56:01.789Z,1.35
2022-07-29T09:58:28.796Z,1.27
2022-07-29T10:00:56.618Z,1.15
2022-07-29T10:03:24.019Z,1.27
2022-07-29T10:06:10.865Z,1.27
2022-07-29T10:08:38.661Z,3.30
2022-07-29T10:11:11.596Z,1.52
2022-07-29T10:13:39.075Z,1.40
2022-07-29T10:16:06.793Z,1.00
2022-07-29T10:18:34.105Z,1.30
2022-07-29T10:21:02.090Z,1.23
2022-07-29T10:23:30.687Z,1.20
2022-07-29T10:26:14.009Z,1.33
2022-07-29T10:28:40.612Z,1.20
2022-07-29T10:31:14.727Z,1.38
2022-07-29T10:34:18.449Z,1.58
2022-07-29T10:37:01.051Z,1.35
2022-07-29T10:39:49.736Z,1.38
2022-07-29T10:42:33.915Z,1.60
2022-07-29T10:45:02.759Z,1.45
2022-07-29T10:47:31.760Z,1.40
2022-07-29T10:50:03.640Z,1.50
2022-07-29T10:52:53.510Z,1.40
2022-07-29T10:55:45.479Z,1.50
2022-07-29T10:58:19.008Z,1.50
2022-07-29T11:00:51.169Z,1.30
2022-07-29T11:03:52.207Z,1.50
2022-07-29T11:06:26.710Z,1.35
2022-07-29T11:09:25.786Z,1.50
2022-07-29T11:12:02.640Z,1.23
2022-07-29T11:14:59.934Z,1.08
2022-07-29T11:17:26.946Z,1.10
2022-07-29T11:20:32.073Z,1.05
2022-07-29T11:22:59.425Z,1.33
2022-07-29T11:25:42.581Z,1.30
2022-07-29T11:28:23.178Z,1.20
2022-07-29T11:30:54.504Z,1.38
2022-07-29T11:33:54.125Z,1.50
2022-07-29T11:36:16.883Z,1.48
2022-07-29T11:38:43.639Z,1.30
2022-07-29T11:41:21.383Z,1.20
2022-07-29T11:43:52.282Z,1.55
2022-07-29T11:46:47.740Z,1.20
2022-07-29T11:49:21.859Z,1.55
2022-07-29T11:51:55.996Z,1.23
2022-07-29T11:54:50.896Z,1.23
2022-07-29T11:57:22.696Z,1.50
2022-07-29T11:59:49.633Z,1.70
2022-07-29T12:02:37.304Z,1.45
2022-07-29T12:05:10.418Z,1.30
2022-07-29T12:07:39.314Z,1.50
2022-07-29T12:10:11.481Z,1.13
2022-07-29T12:12:52.572Z,1.65
2022-07-29T12:15:21.522Z,1.50
2022-07-29T12:17:49.433Z,1.45
2022-07-29T12:20:28.369Z,1.50
2022-07-29T12:22:56.883Z,1.38
2022-07-29T12:25:33.792Z,1.50
2022-07-29T12:28:02.715Z,1.35
2022-07-29T12:30:55.758Z,1.83
2022-07-29T12:33:25.250Z,1.48
2022-07-29T12:36:12.797Z,1.45
2022-07-29T12:38:44.027Z,1.40
2022-07-29T12:41:11.483Z,1.38
2022-07-29T12:43:38.099Z,1.42
2022-07-29T12:46:15.683Z,1.40
2022-07-29T12:48:44.620Z,1.67
2022-07-29T12:51:13.308Z,1.50
2022-07-29T12:53:40.145Z,1.40
2022-07-29T12:56:41.384Z,1.20
2022-07-29T12:59:12.786Z,1.15
2022-07-29T13:01:39.447Z,1.42
2022-07-29T13:04:06.275Z,1.77
2022-07-29T13:06:51.025Z,1.70
2022-07-29T13:09:20.027Z,1.40
2022-07-29T13:11:49.113Z,1.30
2022-07-29T13:14:38.821Z,1.50
2022-07-29T13:17:09.878Z,1.50
2022-07-29T13:19:45.540Z,1.60
2022-07-29T13:22:14.803Z,1.67
2022-07-29T13:25:02.932Z,1.40
2022-07-29T13:27:33.060Z,1.42
2022-07-29T13:30:01.364Z,1.40
2022-07-29T13:32:29.628Z,1.75
2022-07-29T13:34:57.931Z,1.80
2022-07-29T13:37:25.208Z,1.67
2022-07-29T13:39:53.380Z,2.05
2022-07-29T13:42:20.605Z,1.52
2022-07-29T13:44:47.251Z,1.55
2022-07-29T13:47:13.857Z,1.67
2022-07-29T13:49:40.485Z,1.52
2022-07-29T13:52:08.309Z,1.60
2022-07-29T13:54:42.084Z,2.05
2022-07-29T13:57:11.484Z,1.58
2022-07-29T13:59:38.297Z,1.20
2022-07-29T14:02:05.918Z,1.50
2022-07-29T14:04:33.378Z,2.08
2022-07-29T14:07:00.060Z,2.17
2022-07-29T14:09:41.084Z,2.00
2022-07-29T14:12:09.337Z,1.58
2022-07-29T14:14:37.315Z,2.10
2022-07-29T14:17:04.334Z,1.88
2022-07-29T14:19:32.918Z,1.70
2022-07-29T14:21:59.908Z,1.60
2022-07-29T14:24:26.823Z,2.00
2022-07-29T14:26:53.448Z,1.85
2022-07-29T14:29:20.089Z,1.65
2022-07-29T14:31:46.731Z,1.58
2022-07-29T14:34:13.413Z,1.60
2022-07-29T14:36:40.000Z,1.65
2022-07-29T14:39:06.572Z,1.70
2022-07-29T14:41:33.777Z,1.80
2022-07-29T14:44:02.894Z,1.83
2022-07-29T14:46:29.523Z,1.90
2022-07-29T14:48:56.224Z,2.08
2022-07-29T14:51:22.842Z,2.15
2022-07-29T14:53:49.428Z,2.30
2022-07-29T14:56:36.165Z,2.20
2022-07-29T14:59:02.732Z,2.10
2022-07-29T15:01:30.094Z,2.25
2022-07-29T15:03:59.706Z,2.20
2022-07-29T15:06:27.499Z,2.38
2022-07-29T15:08:54.820Z,1.80
2022-07-29T15:11:21.382Z,2.03
2022-07-29T15:13:47.937Z,2.30
2022-07-29T15:16:14.549Z,2.28
2022-07-29T15:18:41.214Z,2.15
2022-07-29T15:21:08.359Z,2.10
2022-07-29T15:23:38.486Z,1.90
2022-07-29T15:26:05.273Z,2.17
2022-07-29T15:28:31.974Z,1.90
2022-07-29T15:30:59.306Z,1.90
2022-07-29T15:33:26.541Z,2.55
2022-07-29T15:35:53.140Z,2.13
2022-07-29T15:38:19.739Z,2.25
2022-07-29T15:40:55.096Z,2.40
2022-07-29T15:43:21.632Z,2.10
2022-07-29T15:46:07.422Z,2.28
2022-07-29T15:48:34.258Z,1.90
2022-07-29T15:51:01.042Z,1.80
2022-07-29T15:53:27.743Z,1.77
2022-07-29T15:55:54.340Z,1.90
2022-07-29T15:58:21.096Z,2.10
2022-07-29T16:00:47.829Z,2.38
2022-07-29T16:03:14.807Z,2.17
2022-07-29T16:05:41.646Z,1.98
2022-07-29T16:08:08.531Z,1.90
2022-07-29T16:10:35.057Z,1.70
2022-07-29T16:13:01.722Z,1.80
2022-07-29T16:15:28.257Z,1.60
2022-07-29T16:17:54.835Z,1.70
2022-07-29T16:20:22.361Z,1.85
2022-07-29T16:22:49.236Z,2.13
2022-07-29T16:25:15.842Z,1.65
2022-07-29T16:27:42.523Z,1.83
2022-07-29T16:30:12.311Z,2.20
2022-07-29T16:32:39.740Z,1.90
2022-07-29T16:35:07.538Z,1.80
2022-07-29T16:37:36.436Z,1.85
2022-07-29T16:40:04.793Z,1.92
2022-07-29T16:42:46.011Z,2.03
2022-07-29T16:45:13.478Z,1.80
2022-07-29T16:47:40.510Z,1.80
2022-07-29T16:50:07.768Z,1.90
2022-07-29T16:52:34.428Z,1.60
2022-07-29T16:55:00.951Z,1.98
2022-07-29T16:57:27.508Z,1.65
2022-07-29T16:59:54.058Z,1.73
2022-07-29T17:02:20.684Z,1.58
2022-07-29T17:04:47.367Z,2.50
2022-07-29T17:07:14.196Z,1.85
2022-07-29T17:09:41.112Z,2.00
2022-07-29T17:12:08.019Z,1.80
2022-07-29T17:14:34.645Z,1.95
2022-07-29T17:17:02.491Z,2.03
2022-07-29T17:19:32.781Z,2.15
2022-07-29T17:22:12.987Z,1.55
2022-07-29T17:24:42.615Z,1.98
2022-07-29T17:27:10.239Z,2.58
2022-07-29T17:29:38.606Z,2.58
2022-07-29T17:32:07.423Z,2.65
2022-07-29T17:34:35.730Z,2.20
2022-07-29T17:37:02.329Z,2.05
2022-07-29T17:39:29.032Z,2.00
2022-07-29T17:41:55.731Z,2.10
2022-07-29T17:44:22.268Z,2.00
2022-07-29T17:46:48.972Z,1.80
2022-07-29T17:49:15.618Z,2.33
2022-07-29T17:51:42.213Z,1.90
2022-07-29T17:54:08.765Z,2.10
2022-07-29T17:56:35.423Z,1.80
2022-07-29T17:59:06.393Z,2.10
2022-07-29T18:01:33.725Z,1.73
2022-07-29T18:04:00.586Z,2.55
2022-07-29T18:06:27.162Z,2.05
2022-07-29T18:08:54.319Z,1.85
2022-07-29T18:11:21.685Z,2.00
2022-07-29T18:13:48.268Z,1.77
2022-07-29T18:16:15.040Z,2.05
2022-07-29T18:18:43.339Z,2.70
2022-07-29T18:21:09.980Z,2.20
2022-07-29T18:23:36.585Z,1.70
2022-07-29T18:26:03.376Z,2.30
2022-07-29T18:28:30.040Z,2.97
2022-07-29T18:30:57.840Z,2.35
2022-07-29T18:33:24.461Z,2.30
2022-07-29T18:36:10.821Z,2.35
2022-07-29T18:38:40.061Z,2.90
2022-07-29T18:41:06.876Z,2.60
2022-07-29T18:43:33.434Z,2.37
2022-07-29T18:46:00.005Z,2.80
2022-07-29T18:48:26.860Z,2.25
2022-07-29T18:50:53.496Z,2.40
2022-07-29T18:53:20.129Z,2.57
2022-07-29T18:55:46.700Z,2.37
2022-07-29T18:58:13.289Z,2.70
2022-07-29T19:00:39.818Z,2.57
2022-07-29T19:03:08.255Z,2.33
2022-07-29T19:05:34.955Z,2.50
2022-07-29T19:08:01.595Z,2.57
2022-07-29T19:10:28.303Z,2.23
2022-07-29T19:12:55.244Z,2.40
2022-07-29T19:15:21.797Z,2.33
2022-07-29T19:17:48.864Z,2.83
2022-07-29T19:20:15.906Z,2.60
2022-07-29T19:22:42.655Z,2.67
2022-07-29T19:25:10.012Z,2.37
2022-07-29T19:27:36.802Z,2.77
2022-07-29T19:30:06.389Z,2.90
2022-07-29T19:32:33.113Z,2.63
2022-07-29T19:35:18.231Z,2.40
2022-07-29T19:37:44.807Z,2.60
2022-07-29T19:40:12.517Z,2.70
2022-07-29T19:42:39.450Z,2.50
2022-07-29T19:45:06.539Z,2.57
2022-07-29T19:47:33.121Z,2.50
2022-07-29T19:50:00.628Z,2.60
2022-07-29T19:52:27.595Z,2.57
2022-07-29T19:54:54.355Z,2.63
2022-07-29T19:57:20.896Z,2.60
2022-07-29T19:59:47.482Z,2.30
2022-07-29T20:02:14.202Z,2.70
2022-07-29T20:04:42.698Z,2.60
2022-07-29T20:07:09.417Z,3.00
2022-07-29T20:09:36.289Z,2.53
2022-07-29T20:12:04.663Z,2.43
2022-07-29T20:14:31.194Z,2.60
2022-07-29T20:16:57.747Z,2.57
2022-07-29T20:19:24.428Z,2.90
2022-07-29T20:21:51.421Z,2.57
2022-07-29T20:24:19.333Z,2.87
2022-07-29T20:26:46.759Z,2.70
2022-07-29T20:29:13.617Z,2.90
2022-07-29T20:31:40.518Z,2.63
2022-07-29T20:34:07.114Z,2.80
2022-07-29T20:36:33.648Z,2.63
2022-07-29T20:39:00.323Z,2.90
2022-07-29T20:41:26.965Z,2.50
2022-07-29T20:43:53.491Z,2.50
2022-07-29T20:46:20.083Z,2.80
2022-07-29T20:48:47.256Z,2.90
2022-07-29T20:51:14.424Z,2.93
2022-07-29T20:53:41.109Z,2.77
2022-07-29T20:56:07.948Z,2.80
2022-07-29T20:58:36.231Z,2.57
2022-07-29T21:01:04.033Z,2.97
2022-07-29T21:03:30.690Z,2.77
2022-07-29T21:05:57.287Z,2.87
2022-07-29T21:08:24.023Z,2.70
2022-07-29T21:10:50.794Z,2.90
2022-07-29T21:13:18.589Z,2.77
2022-07-29T21:15:49.154Z,2.80
2022-07-29T21:18:32.896Z,2.77
2022-07-29T21:21:00.933Z,2.67
2022-07-29T21:23:28.025Z,3.00
2022-07-29T21:25:54.824Z,2.60
2022-07-29T21:28:27.660Z,2.70
2022-07-29T21:30:59.404Z,2.77
2022-07-29T21:33:28.103Z,3.00
2022-07-29T21:38:42.019Z,2.87
2022-07-29T21:41:12.190Z,2.70
2022-07-29T21:43:41.737Z,3.17
2022-07-29T21:46:09.340Z,3.17
2022-07-29T21:48:36.015Z,3.10
2022-07-29T21:51:02.721Z,3.07
2022-07-29T21:53:29.384Z,3.23
2022-07-29T21:55:57.419Z,3.10
2022-07-29T21:58:24.673Z,2.80
2022-07-29T22:00:52.194Z,2.70
2022-07-29T22:03:18.963Z,3.20
2022-07-29T22:05:45.669Z,2.70
2022-07-29T22:08:12.919Z,2.90
2022-07-29T22:10:39.524Z,3.10
2022-07-29T22:13:06.554Z,3.23
2022-07-29T22:15:33.256Z,3.00
2022-07-29T22:18:00.428Z,3.20
2022-07-29T22:20:27.042Z,2.73
2022-07-29T22:22:53.995Z,3.10
2022-07-29T22:25:21.170Z,3.00
2022-07-29T22:27:47.865Z,3.50
2022-07-29T22:30:14.752Z,3.30
2022-07-29T22:32:41.939Z,3.60
2022-07-29T22:35:08.633Z,3.20
2022-07-29T22:37:35.555Z,3.53
2022-07-29T22:40:02.348Z,3.00
2022-07-29T22:42:29.029Z,3.50
2022-07-29T22:44:55.853Z,2.97
2022-07-29T22:47:46.242Z,3.00
2022-07-29T22:50:09.125Z,3.50
2022-07-29T22:52:35.731Z,3.33
2022-07-29T22:55:03.859Z,3.13
2022-07-29T22:57:30.465Z,3.03
2022-07-29T22:59:57.019Z,3.40
2022-07-29T23:02:23.733Z,3.40
2022-07-29T23:04:50.288Z,3.20
2022-07-29T23:07:17.537Z,3.30
2022-07-29T23:09:44.094Z,3.10
2022-07-29T23:12:10.673Z,3.60
2022-07-29T23:14:37.670Z,3.13
2022-07-29T23:17:05.177Z,3.20
2022-07-29T23:19:32.016Z,3.17
2022-07-29T23:21:58.802Z,3.43
2022-07-29T23:24:25.494Z,3.20
2022-07-29T23:26:52.098Z,3.37
2022-07-29T23:29:18.730Z,3.73
2022-07-29T23:31:48.134Z,3.20
2022-07-29T23:34:15.056Z,3.90
2022-07-29T23:36:42.288Z,3.70
2022-07-29T23:39:13.225Z,3.43
2022-07-29T23:41:40.001Z,3.40
2022-07-29T23:44:06.823Z,3.43
2022-07-29T23:46:33.763Z,3.30
2022-07-29T23:49:00.520Z,3.60
2022-07-29T23:51:28.973Z,3.57
2022-07-29T23:53:55.818Z,3.67
2022-07-29T23:56:22.611Z,3.60
2022-07-29T23:58:49.199Z,3.50
